Time;durP1;ratioP1;P1;durP2;ratioP2;P2;SDS_P1;SDS_P2;PMS_P1;PMS_P2;Temp;Humidity;BMP_temperature;BMP_pressure;BME280_temperature;BME280_humidity;BME280_pressure;Samples;Min_cycle;Max_cycle;Signal;HPM_P1;HPM_P2
2021/01/18 00:00:13;;;;;;;;;;;16.60;58.00;;;;;;5045033;28;19947;-60
2021/01/18 00:02:40;;;;;;;;;;;16.50;57.90;;;;;;5039838;28;19929;-59
2021/01/18 00:05:07;;;;;;;;;;;16.50;57.80;;;;;;5045292;28;19933;-59
2021/01/18 00:07:46;;;;;;;;;;;16.50;57.90;;;;;;5039030;28;19925;-60
2021/01/18 00:10:13;;;;;;;;;;;16.50;57.90;;;;;;5045185;28;19925;-59
2021/01/18 00:12:42;;;;;;;;;;;16.50;57.70;;;;;;5041497;28;20548;-60
2021/01/18 00:15:15;;;;;;;;;;;16.50;58.00;;;;;;5044206;28;19944;-59
2021/01/18 00:17:41;;;;;;;;;;;16.50;57.90;;;;;;5040022;28;19932;-59
2021/01/18 00:20:08;;;;;;;;;;;16.50;58.00;;;;;;5044557;28;19925;-60
2021/01/18 00:22:38;;;;;;;;;;;16.40;57.90;;;;;;5039262;28;20278;-59
2021/01/18 00:25:08;;;;;;;;;;;16.40;57.90;;;;;;5045601;28;19952;-58
2021/01/18 00:27:35;;;;;;;;;;;16.40;58.00;;;;;;5040712;28;19925;-58
2021/01/18 00:30:04;;;;;;;;;;;16.40;57.90;;;;;;5041747;28;20292;-60
2021/01/18 00:32:30;;;;;;;;;;;16.40;58.00;;;;;;5035962;28;19932;-59
2021/01/18 00:34:56;;;;;;;;;;;16.40;57.80;;;;;;5043129;28;19924;-58
2021/01/18 00:37:22;;;;;;;;;;;16.40;58.00;;;;;;5048611;28;20299;-59
2021/01/18 00:39:48;;;;;;;;;;;16.40;58.10;;;;;;5039958;28;19933;-58
2021/01/18 00:42:19;;;;;;;;;;;16.40;58.10;;;;;;5043384;28;19932;-58
2021/01/18 00:44:45;;;;;;;;;;;16.40;58.00;;;;;;5038560;28;19928;-60
2021/01/18 00:47:12;;;;;;;;;;;16.40;58.00;;;;;;5045140;28;20274;-58
2021/01/18 00:49:39;;;;;;;;;;;16.40;58.00;;;;;;5039469;28;19932;-57
2021/01/18 00:52:05;;;;;;;;;;;16.40;58.00;;;;;;5050525;28;19947;-58
2021/01/18 00:54:32;;;;;;;;;;;16.30;58.00;;;;;;5043914;28;19955;-59
2021/01/18 00:56:58;;;;;;;;;;;16.30;58.00;;;;;;5049159;28;20385;-59
2021/01/18 00:59:24;;;;;;;;;;;16.40;58.00;;;;;;5044164;28;19928;-59
2021/01/18 01:01:50;;;;;;;;;;;16.30;58.10;;;;;;5049588;28;19924;-59
2021/01/18 01:04:17;;;;;;;;;;;16.30;58.00;;;;;;5041927;28;20300;-59
2021/01/18 01:06:43;;;;;;;;;;;16.30;58.10;;;;;;5044563;28;19925;-59
2021/01/18 01:09:09;;;;;;;;;;;16.30;58.10;;;;;;5042907;28;20407;-59
2021/01/18 01:11:41;;;;;;;;;;;16.30;58.10;;;;;;5047863;28;20319;-59
2021/01/18 01:14:08;;;;;;;;;;;16.30;58.20;;;;;;5043962;28;19925;-59
2021/01/18 01:16:34;;;;;;;;;;;16.30;58.20;;;;;;5047970;28;20495;-60
2021/01/18 01:19:00;;;;;;;;;;;16.30;58.10;;;;;;5050137;28;19929;-59
2021/01/18 01:21:27;;;;;;;;;;;16.30;58.10;;;;;;5040104;28;20427;-58
2021/01/18 01:23:53;;;;;;;;;;;16.30;58.10;;;;;;5046980;28;19925;-58
2021/01/18 01:26:19;;;;;;;;;;;16.30;58.10;;;;;;5041281;28;19933;-60
2021/01/18 01:28:45;;;;;;;;;;;16.20;58.20;;;;;;5048678;28;19929;-59
2021/01/18 01:31:12;;;;;;;;;;;16.30;58.10;;;;;;5039545;28;20588;-58
2021/01/18 01:33:38;;;;;;;;;;;16.20;58.20;;;;;;5046906;28;19925;-59
2021/01/18 01:36:05;;;;;;;;;;;16.30;58.10;;;;;;5040222;28;20015;-58
2021/01/18 01:38:34;;;;;;;;;;;16.20;58.10;;;;;;5046566;28;19963;-60
2021/01/18 01:41:01;;;;;;;;;;;16.20;58.00;;;;;;5041832;28;19935;-60
2021/01/18 01:43:27;;;;;;;;;;;16.20;58.10;;;;;;5047244;28;19940;-58
2021/01/18 01:45:53;;;;;;;;;;;16.20;58.10;;;;;;5042173;28;19932;-59
2021/01/18 01:48:20;;;;;;;;;;;16.20;58.10;;;;;;5051295;28;19925;-60
2021/01/18 01:50:47;;;;;;;;;;;16.20;58.10;;;;;;5039443;28;19925;-59
2021/01/18 01:53:32;;;;;;;;;;;16.20;58.10;;;;;;5048876;28;20487;-59
2021/01/18 01:55:59;;;;;;;;;;;16.20;58.10;;;;;;5042099;28;20380;-59
2021/01/18 01:58:26;;;;;;;;;;;16.20;58.10;;;;;;5049342;28;19935;-59
2021/01/18 02:00:52;;;;;;;;;;;16.20;58.10;;;;;;5042228;28;19932;-60
2021/01/18 02:03:30;;;;;;;;;;;16.20;58.10;;;;;;5046828;28;20293;-60
2021/01/18 02:05:57;;;;;;;;;;;16.20;58.10;;;;;;5039842;28;20631;-59
2021/01/18 02:08:23;;;;;;;;;;;16.20;58.10;;;;;;5045979;28;19929;-58
2021/01/18 02:10:49;;;;;;;;;;;16.20;58.10;;;;;;5045204;28;19929;-60
2021/01/18 02:13:30;;;;;;;;;;;16.20;58.10;;;;;;5040343;28;20383;-59
2021/01/18 02:15:56;;;;;;;;;;;16.20;58.10;;;;;;5044745;28;19924;-59
2021/01/18 02:18:25;;;;;;;;;;;16.10;58.10;;;;;;5039783;28;19924;-59
2021/01/18 02:20:51;;;;;;;;;;;16.10;58.10;;;;;;5042732;28;19924;-60
2021/01/18 02:23:36;;;;;;;;;;;16.20;58.10;;;;;;5043683;28;19932;-58
2021/01/18 02:26:02;;;;;;;;;;;16.10;58.00;;;;;;5047530;28;19931;-58
2021/01/18 02:28:52;;;;;;;;;;;16.10;58.10;;;;;;5042491;28;19931;-57
2021/01/18 02:31:28;;;;;;;;;;;16.10;58.20;;;;;;5037484;28;19932;-60
2021/01/18 02:34:06;;;;;;;;;;;16.10;58.00;;;;;;5036493;28;19933;-58
2021/01/18 02:36:48;;;;;;;;;;;16.10;58.10;;;;;;5047449;28;20789;-59
2021/01/18 02:39:28;;;;;;;;;;;16.10;58.00;;;;;;5040084;28;19970;-59
2021/01/18 02:42:02;;;;;;;;;;;16.10;58.00;;;;;;5044304;28;20274;-58
2021/01/18 02:44:29;;;;;;;;;;;16.10;58.10;;;;;;5036337;28;19931;-60
2021/01/18 02:46:57;;;;;;;;;;;16.10;58.10;;;;;;5046438;28;19924;-59
2021/01/18 02:49:24;;;;;;;;;;;16.10;58.10;;;;;;5040186;28;19924;-59
2021/01/18 02:52:03;;;;;;;;;;;16.10;58.00;;;;;;5046608;28;19931;-60
2021/01/18 02:54:30;;;;;;;;;;;16.10;58.00;;;;;;5040139;28;19929;-58
2021/01/18 02:56:56;;;;;;;;;;;16.10;58.10;;;;;;5045435;28;19964;-58
2021/01/18 02:59:22;;;;;;;;;;;16.10;58.00;;;;;;5042454;28;20270;-58
2021/01/18 03:02:04;;;;;;;;;;;16.10;57.90;;;;;;5044070;28;19932;-59
2021/01/18 03:04:55;;;;;;;;;;;16.10;58.00;;;;;;5038373;28;19929;-59
2021/01/18 03:07:39;;;;;;;;;;;16.10;57.90;;;;;;5046295;28;19931;-60
2021/01/18 03:10:08;;;;;;;;;;;16.10;58.00;;;;;;5037400;28;19961;-59
2021/01/18 03:12:40;;;;;;;;;;;16.10;58.00;;;;;;5047567;28;20331;-60
2021/01/18 03:15:08;;;;;;;;;;;16.10;58.00;;;;;;5036733;28;19969;-59
2021/01/18 03:17:35;;;;;;;;;;;16.10;58.00;;;;;;5047249;28;19947;-58
2021/01/18 03:20:02;;;;;;;;;;;16.10;58.00;;;;;;5038269;28;19931;-58
2021/01/18 03:22:28;;;;;;;;;;;16.10;57.90;;;;;;5043724;28;19955;-59
2021/01/18 03:25:04;;;;;;;;;;;16.00;57.90;;;;;;5036599;28;20353;-59
2021/01/18 03:27:43;;;;;;;;;;;16.10;58.00;;;;;;5046821;28;19931;-59
2021/01/18 03:30:09;;;;;;;;;;;16.00;57.80;;;;;;5039293;28;19972;-59
2021/01/18 03:32:36;;;;;;;;;;;16.00;57.90;;;;;;5047915;28;19932;-59
2021/01/18 03:35:02;;;;;;;;;;;16.00;57.90;;;;;;5038467;28;19932;-59
2021/01/18 03:37:28;;;;;;;;;;;16.00;57.90;;;;;;5047472;28;19925;-59
2021/01/18 03:39:54;;;;;;;;;;;16.00;57.90;;;;;;5037951;28;19925;-59
2021/01/18 03:42:21;;;;;;;;;;;16.00;57.80;;;;;;5049373;28;19925;-59
2021/01/18 03:44:47;;;;;;;;;;;16.00;57.90;;;;;;5040889;28;19925;-57
2021/01/18 03:47:13;;;;;;;;;;;16.00;57.80;;;;;;5046103;28;20323;-58
2021/01/18 03:49:39;;;;;;;;;;;16.00;57.90;;;;;;5043332;28;19929;-59
2021/01/18 03:52:08;;;;;;;;;;;16.00;57.80;;;;;;5039650;28;20292;-59
2021/01/18 03:54:37;;;;;;;;;;;16.00;57.80;;;;;;5044975;28;19936;-58
2021/01/18 03:57:04;;;;;;;;;;;16.00;57.80;;;;;;5038480;28;20446;-59
2021/01/18 03:59:30;;;;;;;;;;;16.00;57.90;;;;;;5044296;28;19950;-59
2021/01/18 04:01:56;;;;;;;;;;;16.00;57.80;;;;;;5042415;28;20389;-60
2021/01/18 04:04:27;;;;;;;;;;;16.00;57.80;;;;;;5044539;28;19925;-59
2021/01/18 04:06:54;;;;;;;;;;;16.00;57.80;;;;;;5039271;28;20046;-59
2021/01/18 04:09:21;;;;;;;;;;;15.90;57.80;;;;;;5045328;28;19925;-60
2021/01/18 04:11:47;;;;;;;;;;;16.00;57.90;;;;;;5037821;28;20407;-60
2021/01/18 04:14:13;;;;;;;;;;;15.90;57.80;;;;;;5046426;28;19932;-59
2021/01/18 04:16:40;;;;;;;;;;;16.00;57.90;;;;;;5040213;28;20308;-57
2021/01/18 04:19:07;;;;;;;;;;;15.90;57.80;;;;;;5042860;28;19932;-59
2021/01/18 04:21:36;;;;;;;;;;;15.90;57.80;;;;;;5040549;28;20501;-58
2021/01/18 04:24:02;;;;;;;;;;;15.90;57.80;;;;;;5046680;28;19931;-58
2021/01/18 04:26:28;;;;;;;;;;;15.90;57.70;;;;;;5040540;28;19931;-59
2021/01/18 04:28:54;;;;;;;;;;;15.90;57.80;;;;;;5049649;28;19925;-60
2021/01/18 04:31:20;;;;;;;;;;;15.90;57.80;;;;;;5049678;28;19933;-58
2021/01/18 04:33:47;;;;;;;;;;;15.90;57.70;;;;;;5040974;28;19971;-58
2021/01/18 04:36:18;;;;;;;;;;;15.90;57.70;;;;;;5045168;28;20019;-58
2021/01/18 04:38:44;;;;;;;;;;;15.90;57.80;;;;;;5044329;28;19925;-58
2021/01/18 04:41:11;;;;;;;;;;;15.90;57.70;;;;;;5046461;28;19925;-58
2021/01/18 04:43:40;;;;;;;;;;;15.90;57.80;;;;;;5045044;28;19925;-59
2021/01/18 04:46:09;;;;;;;;;;;15.90;57.70;;;;;;5047993;28;19929;-59
2021/01/18 04:48:37;;;;;;;;;;;15.90;57.70;;;;;;5040655;28;19925;-60
2021/01/18 04:51:06;;;;;;;;;;;15.90;57.70;;;;;;5050378;28;20405;-59
2021/01/18 04:53:32;;;;;;;;;;;15.90;57.70;;;;;;5042032;28;21259;-59
2021/01/18 04:56:04;;;;;;;;;;;15.90;57.80;;;;;;5049963;28;19933;-59
2021/01/18 04:58:30;;;;;;;;;;;15.90;57.70;;;;;;5044848;28;20439;-60
2021/01/18 05:01:02;;;;;;;;;;;15.90;57.70;;;;;;5048015;28;19925;-57
2021/01/18 05:03:32;;;;;;;;;;;15.90;57.70;;;;;;5045296;28;19939;-60
2021/01/18 05:06:11;;;;;;;;;;;15.90;57.70;;;;;;5045003;28;20313;-57
2021/01/18 05:09:13;;;;;;;;;;;15.90;57.80;;;;;;5043566;28;19931;-60
2021/01/18 05:11:39;;;;;;;;;;;15.90;57.60;;;;;;5040698;28;19955;-57
2021/01/18 05:14:06;;;;;;;;;;;15.90;57.60;;;;;;5041733;28;19925;-60
2021/01/18 05:16:36;;;;;;;;;;;15.90;57.70;;;;;;5046140;28;19929;-61
2021/01/18 05:19:10;;;;;;;;;;;15.80;57.60;;;;;;5043319;28;19936;-59
2021/01/18 05:21:39;;;;;;;;;;;15.80;57.70;;;;;;5048071;28;19932;-59
2021/01/18 05:24:06;;;;;;;;;;;15.90;57.60;;;;;;5040463;28;19925;-60
2021/01/18 05:26:32;;;;;;;;;;;15.80;57.60;;;;;;5048609;28;19933;-60
2021/01/18 05:28:59;;;;;;;;;;;15.80;57.60;;;;;;5039717;28;19943;-58
2021/01/18 05:31:28;;;;;;;;;;;15.80;57.50;;;;;;5050891;28;19925;-58
2021/01/18 05:34:15;;;;;;;;;;;15.80;57.50;;;;;;5044500;28;19925;-56
2021/01/18 05:36:46;;;;;;;;;;;15.90;57.50;;;;;;5047755;28;19925;-58
2021/01/18 05:39:13;;;;;;;;;;;15.80;57.50;;;;;;5040848;28;20328;-57
2021/01/18 05:41:41;;;;;;;;;;;15.80;57.50;;;;;;5044866;28;19925;-59
2021/01/18 05:44:08;;;;;;;;;;;15.80;57.40;;;;;;5048039;28;19931;-59
2021/01/18 05:46:35;;;;;;;;;;;15.80;57.40;;;;;;5040547;28;19939;-57
2021/01/18 05:49:15;;;;;;;;;;;15.80;57.40;;;;;;5045356;28;19925;-60
2021/01/18 05:51:47;;;;;;;;;;;15.80;57.40;;;;;;5040938;28;20340;-59
2021/01/18 05:54:13;;;;;;;;;;;15.80;57.40;;;;;;5045427;28;20403;-59
2021/01/18 05:56:44;;;;;;;;;;;15.80;57.30;;;;;;5041022;28;19925;-58
2021/01/18 05:59:11;;;;;;;;;;;15.80;57.40;;;;;;5046170;28;19936;-58
2021/01/18 06:01:39;;;;;;;;;;;15.80;57.30;;;;;;5040992;28;19931;-58
2021/01/18 06:04:07;;;;;;;;;;;15.80;57.30;;;;;;5044615;28;19925;-59
2021/01/18 06:06:34;;;;;;;;;;;15.80;57.10;;;;;;5044806;28;20263;-57
2021/01/18 06:09:00;;;;;;;;;;;15.80;57.10;;;;;;5047073;28;19935;-58
2021/01/18 06:11:26;;;;;;;;;;;15.80;57.00;;;;;;5044148;28;19925;-58
2021/01/18 06:13:58;;;;;;;;;;;15.80;57.00;;;;;;5044570;28;19948;-60
2021/01/18 06:16:24;;;;;;;;;;;15.80;57.00;;;;;;5040492;28;19924;-58
2021/01/18 06:18:59;;;;;;;;;;;15.80;57.00;;;;;;5043736;28;19929;-58
2021/01/18 06:21:34;;;;;;;;;;;15.80;57.00;;;;;;5041462;28;19960;-58
2021/01/18 06:24:19;;;;;;;;;;;15.80;57.10;;;;;;5044546;28;19928;-58
2021/01/18 06:26:46;;;;;;;;;;;15.80;57.00;;;;;;5039924;28;19936;-58
2021/01/18 06:29:31;;;;;;;;;;;15.80;56.90;;;;;;5045481;28;19931;-58
2021/01/18 06:31:57;;;;;;;;;;;15.80;56.90;;;;;;5043807;28;19939;-59
2021/01/18 06:34:27;;;;;;;;;;;15.80;56.90;;;;;;5042667;28;19949;-60
2021/01/18 06:36:54;;;;;;;;;;;15.80;56.90;;;;;;5038654;28;19939;-59
2021/01/18 06:39:23;;;;;;;;;;;15.80;56.90;;;;;;5046164;28;19947;-59
2021/01/18 06:41:54;;;;;;;;;;;15.80;57.70;;;;;;5041747;28;19925;-59
2021/01/18 06:44:31;;;;;;;;;;;15.80;57.20;;;;;;5045031;28;20030;-57
2021/01/18 06:46:57;;;;;;;;;;;15.80;57.10;;;;;;5041241;28;19952;-59
2021/01/18 06:49:24;;;;;;;;;;;15.80;57.10;;;;;;5043489;28;19934;-60
2021/01/18 06:51:52;;;;;;;;;;;15.80;57.10;;;;;;5044836;28;19928;-60
2021/01/18 06:54:20;;;;;;;;;;;15.70;56.90;;;;;;5037930;28;19955;-60
2021/01/18 06:57:06;;;;;;;;;;;15.80;56.90;;;;;;5043173;28;20297;-59
2021/01/18 06:59:32;;;;;;;;;;;15.80;57.00;;;;;;5038697;28;19929;-59
2021/01/18 07:02:06;;;;;;;;;;;15.80;56.90;;;;;;5039634;28;20438;-57
2021/01/18 07:04:41;;;;;;;;;;;15.80;56.90;;;;;;5039319;28;20419;-57
2021/01/18 07:07:11;;;;;;;;;;;15.70;57.10;;;;;;5040283;28;19978;-57
2021/01/18 07:09:37;;;;;;;;;;;15.80;57.30;;;;;;5037076;28;19925;-57
2021/01/18 07:12:04;;;;;;;;;;;15.70;57.30;;;;;;5047731;28;19928;-57
2021/01/18 07:14:32;;;;;;;;;;;15.80;57.10;;;;;;5038600;28;19925;-59
2021/01/18 07:17:02;;;;;;;;;;;15.70;57.10;;;;;;5045933;28;19975;-58
2021/01/18 07:19:34;;;;;;;;;;;15.80;57.00;;;;;;5023140;28;19932;-57
2021/01/18 07:22:03;;;;;;;;;;;15.80;57.00;;;;;;5050875;28;20004;-55
2021/01/18 07:24:30;;;;;;;;;;;15.70;56.90;;;;;;5038771;28;19925;-54
2021/01/18 07:27:15;;;;;;;;;;;15.70;56.90;;;;;;5051657;28;19932;-55
2021/01/18 07:29:41;;;;;;;;;;;15.70;56.90;;;;;;5042445;28;20414;-54
2021/01/18 07:32:08;;;;;;;;;;;15.70;56.90;;;;;;5042243;28;19925;-57
2021/01/18 07:34:35;;;;;;;;;;;15.70;56.90;;;;;;5028028;28;19936;-56
2021/01/18 07:37:06;;;;;;;;;;;15.70;57.20;;;;;;5048785;28;19978;-58
2021/01/18 07:39:33;;;;;;;;;;;15.80;58.20;;;;;;5036156;28;20101;-59
2021/01/18 07:42:00;;;;;;;;;;;16.50;58.10;;;;;;5053817;28;20004;-57
2021/01/18 07:44:45;;;;;;;;;;;17.20;56.80;;;;;;5036340;28;19939;-56
2021/01/18 07:47:12;;;;;;;;;;;17.50;55.90;;;;;;5041240;28;19935;-55
2021/01/18 07:49:39;;;;;;;;;;;17.80;55.00;;;;;;5036099;28;19933;-59
2021/01/18 07:52:24;;;;;;;;;;;17.90;54.20;;;;;;5045407;28;20446;-59
2021/01/18 07:54:51;;;;;;;;;;;18.10;53.40;;;;;;5027724;28;19935;-61
2021/01/18 07:57:31;;;;;;;;;;;18.40;53.20;;;;;;5013996;28;19940;-62
2021/01/18 08:00:16;;;;;;;;;;;18.80;52.70;;;;;;5038031;28;19961;-60
2021/01/18 08:03:25;;;;;;;;;;;19.00;52.10;;;;;;5030878;28;19933;-57
2021/01/18 08:05:52;;;;;;;;;;;19.30;51.60;;;;;;5040753;28;19925;-57
2021/01/18 08:08:26;;;;;;;;;;;19.50;51.00;;;;;;5046139;28;19940;-57
2021/01/18 08:10:54;;;;;;;;;;;19.60;51.20;;;;;;5036694;28;19931;-55
2021/01/18 08:13:30;;;;;;;;;;;19.80;51.10;;;;;;5027862;28;19936;-60
2021/01/18 08:16:17;;;;;;;;;;;19.90;50.80;;;;;;5039819;28;19971;-56
2021/01/18 08:19:06;;;;;;;;;;;20.00;50.50;;;;;;5043219;28;19933;-57
2021/01/18 08:21:32;;;;;;;;;;;20.20;50.20;;;;;;5041076;28;19933;-60
2021/01/18 08:24:09;;;;;;;;;;;20.30;50.10;;;;;;5048176;28;20342;-58
2021/01/18 08:26:55;;;;;;;;;;;20.40;49.80;;;;;;5039829;28;19978;-58
2021/01/18 08:29:52;;;;;;;;;;;20.60;49.50;;;;;;5047398;28;19928;-58
2021/01/18 08:32:31;;;;;;;;;;;20.60;48.90;;;;;;5024232;28;20298;-57
2021/01/18 08:34:58;;;;;;;;;;;20.80;48.70;;;;;;5045846;28;19933;-59
2021/01/18 08:37:25;;;;;;;;;;;20.90;48.60;;;;;;5045887;28;19925;-55
2021/01/18 08:39:59;;;;;;;;;;;20.70;47.40;;;;;;5050497;28;21088;-55
2021/01/18 08:42:29;;;;;;;;;;;20.50;47.60;;;;;;5047339;28;19932;-56
2021/01/18 08:44:56;;;;;;;;;;;20.40;47.60;;;;;;5051350;28;20538;-55
2021/01/18 08:47:34;;;;;;;;;;;20.50;47.70;;;;;;5049706;28;19932;-57
2021/01/18 08:50:16;;;;;;;;;;;20.40;47.60;;;;;;5053652;28;19935;-55
2021/01/18 08:52:42;;;;;;;;;;;20.40;47.50;;;;;;5045531;28;20040;-58
2021/01/18 08:55:27;;;;;;;;;;;20.60;47.50;;;;;;5051032;28;19991;-56
2021/01/18 08:58:04;;;;;;;;;;;21.10;47.20;;;;;;5045189;28;19932;-58
2021/01/18 09:00:37;;;;;;;;;;;21.70;46.40;;;;;;5048218;28;20004;-58
2021/01/18 09:03:03;;;;;;;;;;;22.00;45.90;;;;;;5040942;28;19925;-58
2021/01/18 09:05:30;;;;;;;;;;;22.20;46.00;;;;;;5051058;28;20308;-58
2021/01/18 09:07:56;;;;;;;;;;;22.30;45.80;;;;;;5041991;28;19949;-58
2021/01/18 09:10:23;;;;;;;;;;;22.50;45.70;;;;;;5046112;28;19931;-57
2021/01/18 09:12:50;;;;;;;;;;;22.70;45.40;;;;;;5038995;28;19933;-59
2021/01/18 09:15:22;;;;;;;;;;;22.80;45.30;;;;;;5033299;28;19971;-58
2021/01/18 09:17:48;;;;;;;;;;;23.00;44.90;;;;;;5038959;28;19947;-58
2021/01/18 09:20:16;;;;;;;;;;;23.10;44.80;;;;;;5045709;28;19933;-60
2021/01/18 09:22:43;;;;;;;;;;;23.20;44.50;;;;;;5047371;28;19925;-59
2021/01/18 09:25:10;;;;;;;;;;;23.20;44.50;;;;;;5039860;28;19933;-59
2021/01/18 09:27:37;;;;;;;;;;;23.30;44.70;;;;;;5045140;28;20273;-61
2021/01/18 09:30:11;;;;;;;;;;;23.30;44.50;;;;;;5041615;28;19925;-58
2021/01/18 09:32:38;;;;;;;;;;;23.40;44.30;;;;;;5047576;28;21548;-59
2021/01/18 09:35:09;;;;;;;;;;;23.40;44.10;;;;;;5041669;28;19932;-59
2021/01/18 09:37:46;;;;;;;;;;;23.50;44.10;;;;;;5044988;28;19924;-59
2021/01/18 09:40:14;;;;;;;;;;;23.60;43.70;;;;;;5040799;28;19929;-60
2021/01/18 09:42:40;;;;;;;;;;;23.70;43.60;;;;;;5048700;28;20648;-59
2021/01/18 09:45:10;;;;;;;;;;;23.80;43.70;;;;;;5037969;28;19936;-59
2021/01/18 09:47:36;;;;;;;;;;;23.80;43.40;;;;;;5048655;28;19924;-60
2021/01/18 09:50:06;;;;;;;;;;;23.80;43.40;;;;;;5043417;28;20317;-59
2021/01/18 09:52:33;;;;;;;;;;;23.90;43.30;;;;;;5048063;28;19925;-59
2021/01/18 09:55:03;;;;;;;;;;;24.00;43.10;;;;;;5041865;28;20316;-58
2021/01/18 09:57:31;;;;;;;;;;;24.10;43.10;;;;;;5044040;28;19956;-57
2021/01/18 09:59:58;;;;;;;;;;;24.10;43.00;;;;;;5037969;28;19931;-59
2021/01/18 10:02:24;;;;;;;;;;;24.20;42.80;;;;;;5046931;28;19952;-59
2021/01/18 10:04:52;;;;;;;;;;;24.30;43.20;;;;;;5036609;28;19931;-58
2021/01/18 10:07:20;;;;;;;;;;;24.40;42.60;;;;;;5047722;28;19925;-58
2021/01/18 10:09:47;;;;;;;;;;;24.40;42.60;;;;;;5038649;28;19933;-59
2021/01/18 10:12:13;;;;;;;;;;;24.40;42.60;;;;;;5043989;28;19963;-58
2021/01/18 10:14:48;;;;;;;;;;;24.40;42.60;;;;;;5045111;28;20940;-58
2021/01/18 10:17:15;;;;;;;;;;;24.60;42.50;;;;;;5045877;28;20490;-58
2021/01/18 10:19:44;;;;;;;;;;;24.60;41.40;;;;;;5045135;28;20412;-58
2021/01/18 10:22:19;;;;;;;;;;;24.70;41.80;;;;;;5041768;28;19939;-61
2021/01/18 10:24:55;;;;;;;;;;;24.70;42.10;;;;;;5047435;28;19929;-60
2021/01/18 10:27:24;;;;;;;;;;;24.80;42.00;;;;;;5043547;28;19925;-60
2021/01/18 10:30:05;;;;;;;;;;;24.90;42.00;;;;;;5047250;28;19924;-60
2021/01/18 10:32:38;;;;;;;;;;;24.90;42.00;;;;;;5040169;28;19974;-62
2021/01/18 10:35:18;;;;;;;;;;;25.10;41.90;;;;;;5046562;28;19937;-58
2021/01/18 10:37:44;;;;;;;;;;;25.10;42.10;;;;;;5036962;28;20401;-62
2021/01/18 10:40:11;;;;;;;;;;;25.30;41.70;;;;;;5049595;28;19944;-61
2021/01/18 10:43:04;;;;;;;;;;;25.40;41.60;;;;;;5040694;28;19925;-60
2021/01/18 10:45:30;;;;;;;;;;;25.40;41.40;;;;;;5044513;28;19933;-61
2021/01/18 10:47:58;;;;;;;;;;;25.60;41.30;;;;;;5038144;28;20636;-60
2021/01/18 10:50:25;;;;;;;;;;;25.50;41.10;;;;;;5049628;28;19932;-59
2021/01/18 10:52:59;;;;;;;;;;;25.60;41.10;;;;;;5045086;28;19925;-58
2021/01/18 10:55:25;;;;;;;;;;;25.60;40.90;;;;;;5049617;28;19933;-60
2021/01/18 10:57:53;;;;;;;;;;;25.70;41.00;;;;;;5046240;28;19925;-57
2021/01/18 11:00:20;;;;;;;;;;;25.70;40.80;;;;;;5047841;28;19963;-57
2021/01/18 11:03:01;;;;;;;;;;;25.70;40.90;;;;;;5037970;28;20373;-57
2021/01/18 11:05:39;;;;;;;;;;;25.80;40.70;;;;;;5043538;28;19924;-58
2021/01/18 11:08:06;;;;;;;;;;;25.80;40.50;;;;;;5035865;28;20451;-57
2021/01/18 11:10:37;;;;;;;;;;;25.90;40.40;;;;;;5045131;28;19933;-54
2021/01/18 11:13:10;;;;;;;;;;;24.90;37.80;;;;;;5046387;28;19925;-54
2021/01/18 11:15:38;;;;;;;;;;;23.70;40.30;;;;;;5047506;28;20782;-54
2021/01/18 11:18:06;;;;;;;;;;;23.00;41.90;;;;;;5045990;28;20460;-54
2021/01/18 11:20:32;;;;;;;;;;;22.60;42.90;;;;;;5050614;28;19951;-58
2021/01/18 11:22:58;;;;;;;;;;;22.30;43.40;;;;;;5038050;28;19925;-58
2021/01/18 11:25:26;;;;;;;;;;;22.10;43.90;;;;;;5027446;28;19924;-58
2021/01/18 11:27:52;;;;;;;;;;;21.90;44.30;;;;;;5034931;28;19931;-58
2021/01/18 11:30:18;;;;;;;;;;;21.80;44.40;;;;;;5044226;28;19929;-60
2021/01/18 11:32:45;;;;;;;;;;;21.70;44.60;;;;;;5045499;28;19925;-60
2021/01/18 11:35:12;;;;;;;;;;;21.60;44.80;;;;;;5032841;28;19932;-60
2021/01/18 11:37:39;;;;;;;;;;;21.50;45.00;;;;;;5041210;28;19979;-60
2021/01/18 11:40:07;;;;;;;;;;;21.40;45.20;;;;;;5037146;28;20007;-59
2021/01/18 11:42:33;;;;;;;;;;;21.20;45.30;;;;;;5046094;28;19925;-59
2021/01/18 11:45:03;;;;;;;;;;;21.20;45.60;;;;;;5035736;28;20006;-59
2021/01/18 11:47:36;;;;;;;;;;;21.10;45.80;;;;;;5043219;28;19933;-58
2021/01/18 11:50:04;;;;;;;;;;;21.00;46.00;;;;;;5029095;28;20328;-58
2021/01/18 11:52:30;;;;;;;;;;;20.90;46.10;;;;;;5044038;28;19939;-57
2021/01/18 11:54:57;;;;;;;;;;;20.80;46.30;;;;;;5032713;28;19931;-58
2021/01/18 11:57:23;;;;;;;;;;;20.70;46.50;;;;;;5042676;28;19925;-59
2021/01/18 11:59:49;;;;;;;;;;;20.60;46.70;;;;;;5037057;28;20332;-65
2021/01/18 12:02:18;;;;;;;;;;;20.60;48.10;;;;;;5040202;28;19936;-64
2021/01/18 12:04:44;;;;;;;;;;;21.20;46.90;;;;;;5035999;28;19925;-63
2021/01/18 12:07:11;;;;;;;;;;;22.20;45.20;;;;;;5041836;28;19982;-63
2021/01/18 12:09:37;;;;;;;;;;;22.80;44.20;;;;;;5037546;28;20381;-64
2021/01/18 12:12:07;;;;;;;;;;;23.20;43.60;;;;;;5045278;28;19947;-63
2021/01/18 12:14:34;;;;;;;;;;;23.60;43.20;;;;;;5019971;28;19931;-62
2021/01/18 12:17:01;;;;;;;;;;;23.80;42.70;;;;;;5039159;28;19932;-64
2021/01/18 12:19:27;;;;;;;;;;;24.00;42.80;;;;;;5040300;28;20017;-63
2021/01/18 12:21:54;;;;;;;;;;;24.10;42.50;;;;;;5034457;28;20335;-66
2021/01/18 12:24:20;;;;;;;;;;;24.20;42.30;;;;;;5042848;28;19952;-64
2021/01/18 12:26:50;;;;;;;;;;;24.40;42.10;;;;;;5037934;28;19972;-62
2021/01/18 12:29:16;;;;;;;;;;;24.60;42.20;;;;;;5026992;28;19972;-63
2021/01/18 12:31:42;;;;;;;;;;;24.70;42.20;;;;;;5016547;28;19976;-65
2021/01/18 12:34:09;;;;;;;;;;;24.90;41.90;;;;;;5024153;28;19940;-64
2021/01/18 12:36:35;;;;;;;;;;;25.00;41.30;;;;;;5030811;28;20064;-64
2021/01/18 12:39:04;;;;;;;;;;;25.40;40.90;;;;;;5019768;28;19939;-65
2021/01/18 12:41:30;;;;;;;;;;;25.40;40.90;;;;;;5018538;28;19979;-61
2021/01/18 12:43:57;;;;;;;;;;;25.50;40.80;;;;;;5022529;28;20022;-62
2021/01/18 12:46:23;;;;;;;;;;;25.50;41.00;;;;;;5019557;28;19932;-64
2021/01/18 12:48:49;;;;;;;;;;;25.70;40.80;;;;;;5028719;28;19939;-64
2021/01/18 12:51:15;;;;;;;;;;;25.70;40.80;;;;;;5019987;28;19943;-65
2021/01/18 12:53:43;;;;;;;;;;;25.70;40.80;;;;;;5027849;28;19924;-64
2021/01/18 12:56:10;;;;;;;;;;;25.60;40.80;;;;;;5015079;28;19979;-64
2021/01/18 12:58:37;;;;;;;;;;;25.70;41.00;;;;;;5026972;28;20404;-63
2021/01/18 13:01:03;;;;;;;;;;;25.90;40.60;;;;;;5016928;28;19933;-64
2021/01/18 13:03:29;;;;;;;;;;;26.00;40.50;;;;;;5015777;28;20428;-64
2021/01/18 13:05:56;;;;;;;;;;;26.10;40.40;;;;;;5022173;28;19926;-56
2021/01/18 13:08:22;;;;;;;;;;;26.00;39.00;;;;;;5033460;28;19925;-55
2021/01/18 13:10:48;;;;;;;;;;;24.90;38.90;;;;;;5033729;28;19929;-55
2021/01/18 13:13:15;;;;;;;;;;;24.50;40.00;;;;;;5028222;28;20569;-57
2021/01/18 13:15:41;;;;;;;;;;;24.20;40.40;;;;;;5031066;28;19929;-57
2021/01/18 13:18:07;;;;;;;;;;;24.70;40.80;;;;;;5028049;28;19935;-56
2021/01/18 13:20:34;;;;;;;;;;;25.40;40.10;;;;;;5027980;28;19933;-63
2021/01/18 13:23:00;;;;;;;;;;;25.80;39.80;;;;;;5017526;28;19925;-62
2021/01/18 13:25:51;;;;;;;;;;;26.00;39.70;;;;;;5027628;28;19936;-56
2021/01/18 13:28:18;;;;;;;;;;;26.20;39.50;;;;;;5039798;28;20258;-58
2021/01/18 13:30:44;;;;;;;;;;;26.30;39.70;;;;;;5051652;28;19932;-56
2021/01/18 13:33:10;;;;;;;;;;;26.30;39.60;;;;;;5043014;28;19972;-56
2021/01/18 13:35:37;;;;;;;;;;;26.40;39.70;;;;;;5049889;28;20418;-61
2021/01/18 13:38:03;;;;;;;;;;;26.60;39.80;;;;;;5042272;28;19925;-61
2021/01/18 13:40:29;;;;;;;;;;;26.50;39.80;;;;;;5041215;28;20046;-61
2021/01/18 13:42:56;;;;;;;;;;;26.50;39.90;;;;;;5045328;28;19939;-62
2021/01/18 13:45:22;;;;;;;;;;;26.60;39.80;;;;;;5040436;28;20262;-63
2021/01/18 13:47:48;;;;;;;;;;;26.60;40.00;;;;;;5047095;28;19951;-63
2021/01/18 13:50:15;;;;;;;;;;;26.60;39.80;;;;;;5041103;28;19932;-61
2021/01/18 13:52:41;;;;;;;;;;;26.70;39.80;;;;;;5046997;28;20407;-61
2021/01/18 13:55:08;;;;;;;;;;;26.80;39.70;;;;;;5038923;28;20320;-63
2021/01/18 13:57:34;;;;;;;;;;;26.70;39.70;;;;;;5042948;28;19924;-61
2021/01/18 14:00:00;;;;;;;;;;;26.80;39.70;;;;;;5036677;28;19979;-61
2021/01/18 14:02:26;;;;;;;;;;;26.80;39.80;;;;;;5049175;28;20320;-58
2021/01/18 14:04:53;;;;;;;;;;;26.80;39.80;;;;;;5044925;28;19933;-56
2021/01/18 14:07:19;;;;;;;;;;;26.80;39.70;;;;;;5047512;28;19931;-57
2021/01/18 14:09:45;;;;;;;;;;;26.90;40.00;;;;;;5038831;28;19939;-57
2021/01/18 14:12:11;;;;;;;;;;;26.90;39.70;;;;;;5048172;28;20391;-60
2021/01/18 14:14:38;;;;;;;;;;;27.00;39.50;;;;;;5038164;28;19928;-58
2021/01/18 14:17:09;;;;;;;;;;;27.10;39.40;;;;;;5047623;28;20296;-57
2021/01/18 14:19:36;;;;;;;;;;;27.20;39.40;;;;;;5045930;28;20373;-57
2021/01/18 14:22:03;;;;;;;;;;;27.30;39.10;;;;;;5041978;28;19939;-64
2021/01/18 14:24:29;;;;;;;;;;;27.30;39.10;;;;;;5044668;28;20293;-64
2021/01/18 14:26:55;;;;;;;;;;;27.50;38.80;;;;;;5040520;28;19931;-58
2021/01/18 14:29:21;;;;;;;;;;;27.50;38.80;;;;;;5046795;28;20454;-57